createdAt,value
2018-10-04T00:04:47.855Z,11.30
2018-10-04T00:10:18.241Z,8.63
2018-10-04T00:15:47.629Z,10.10
2018-10-04T00:21:16.958Z,9.08
2018-10-04T00:26:46.277Z,9.17
2018-10-04T00:32:15.576Z,10.83
2018-10-04T00:37:45.693Z,10.07
2018-10-04T00:43:16.213Z,12.20
2018-10-04T00:48:45.536Z,10.60
2018-10-04T00:54:14.823Z,10.33
2018-10-04T00:59:44.092Z,8.60
2018-10-04T01:05:13.413Z,11.57
2018-10-04T01:10:42.808Z,10.60
2018-10-04T01:16:12.193Z,12.68
2018-10-04T01:21:41.652Z,11.57
2018-10-04T01:27:11.055Z,10.20
2018-10-04T01:32:40.517Z,10.57
2018-10-04T01:38:09.787Z,9.28
2018-10-04T01:43:39.411Z,10.80
2018-10-04T01:49:08.742Z,6.37
2018-10-04T01:54:38.108Z,9.43
2018-10-04T02:00:07.505Z,8.20
2018-10-04T02:05:36.824Z,7.77
2018-10-04T02:11:06.474Z,9.50
2018-10-04T02:16:35.844Z,9.10
2018-10-04T02:22:05.159Z,12.77
2018-10-04T02:27:34.585Z,6.65
2018-10-04T02:33:04.043Z,12.07
2018-10-04T02:38:33.496Z,8.60
2018-10-04T02:44:02.789Z,8.50
2018-10-04T02:49:32.241Z,6.40
2018-10-04T02:55:06.748Z,11.77
2018-10-04T03:00:36.124Z,8.15
2018-10-04T03:06:05.396Z,6.75
2018-10-04T03:11:34.917Z,9.23
2018-10-04T03:17:05.333Z,10.80
2018-10-04T03:22:36.728Z,6.55
2018-10-04T03:28:06.144Z,9.13
2018-10-04T03:33:35.428Z,9.43
2018-10-04T03:39:06.641Z,7.40
2018-10-04T03:44:36.081Z,7.70
2018-10-04T03:50:05.359Z,7.30
2018-10-04T03:55:34.696Z,6.90
2018-10-04T04:01:04.509Z,7.10
2018-10-04T04:06:33.732Z,8.90
2018-10-04T04:12:03.114Z,7.20
2018-10-04T04:17:32.389Z,8.03
2018-10-04T04:23:01.772Z,14.37
2018-10-04T04:28:31.461Z,11.10
2018-10-04T04:34:01.041Z,7.00
2018-10-04T04:39:30.782Z,6.13
2018-10-04T04:45:00.366Z,6.13
2018-10-04T04:50:29.894Z,8.30
2018-10-04T04:55:59.150Z,8.30
2018-10-04T05:01:28.437Z,6.30
2018-10-04T05:06:57.729Z,8.17
2018-10-04T05:12:27.012Z,8.57
2018-10-04T05:17:56.321Z,9.43
2018-10-04T05:23:25.654Z,6.80
2018-10-04T05:28:55.197Z,9.53
2018-10-04T05:34:24.599Z,9.50
2018-10-04T05:39:53.912Z,17.67
2018-10-04T05:45:23.277Z,7.80
2018-10-04T05:50:52.655Z,7.77
2018-10-04T05:56:24.158Z,8.63
2018-10-04T06:01:53.482Z,6.97
2018-10-04T06:07:22.801Z,9.77
2018-10-04T06:12:52.189Z,9.83
2018-10-04T06:18:21.485Z,17.40
2018-10-04T06:23:50.773Z,13.10
2018-10-04T06:29:20.021Z,19.93
2018-10-04T06:34:49.603Z,9.70
2018-10-04T06:40:19.058Z,17.50
2018-10-04T06:45:48.262Z,11.07
2018-10-04T06:51:17.562Z,20.73
2018-10-04T06:56:46.888Z,22.60
2018-10-04T07:02:16.254Z,18.07
2018-10-04T07:07:45.590Z,18.30
2018-10-04T07:13:14.984Z,22.73
2018-10-04T07:18:44.329Z,16.25
2018-10-04T07:24:13.629Z,19.20
2018-10-04T07:29:43.131Z,20.00
2018-10-04T07:35:12.485Z,16.60
2018-10-04T07:40:41.762Z,27.48
2018-10-04T07:46:11.060Z,26.77
2018-10-04T07:51:40.375Z,17.40
2018-10-04T07:57:09.746Z,21.10
2018-10-04T08:02:39.128Z,20.57
2018-10-04T08:08:08.512Z,24.50
2018-10-04T08:13:37.828Z,22.33
2018-10-04T08:19:09.406Z,20.23
2018-10-04T08:24:38.768Z,22.73
2018-10-04T08:30:10.345Z,20.40
2018-10-04T08:35:39.656Z,18.55
2018-10-04T08:41:09.058Z,21.33
2018-10-04T08:46:38.391Z,16.93
2018-10-04T08:52:11.777Z,15.05
2018-10-04T08:57:41.097Z,17.57
2018-10-04T09:03:10.548Z,17.52
2018-10-04T09:08:39.873Z,20.43
2018-10-04T09:14:09.159Z,20.03
2018-10-04T09:19:38.541Z,14.23
2018-10-04T09:25:08.079Z,15.27
2018-10-04T09:30:42.562Z,19.80
2018-10-04T09:36:12.447Z,20.40
2018-10-04T09:41:41.848Z,17.53
2018-10-04T09:47:16.313Z,19.13
2018-10-04T09:52:45.697Z,20.60
2018-10-04T09:58:15.063Z,19.10
2018-10-04T10:03:44.612Z,24.50
2018-10-04T10:09:14.034Z,16.77
2018-10-04T10:14:43.485Z,20.33
2018-10-04T10:20:13.452Z,19.20
2018-10-04T10:25:42.832Z,19.90
2018-10-04T10:31:12.293Z,17.53
2018-10-04T10:36:41.640Z,17.82
2018-10-04T10:42:11.192Z,15.18
2018-10-04T10:47:40.645Z,15.70
2018-10-04T10:53:10.098Z,15.70
2018-10-04T10:58:39.436Z,19.43
2018-10-04T11:04:08.883Z,16.37
2018-10-04T11:09:38.241Z,15.20
2018-10-04T11:15:07.557Z,15.60
2018-10-04T11:20:36.944Z,15.55
2018-10-04T11:26:06.344Z,19.97
2018-10-04T11:31:35.782Z,14.68
2018-10-04T11:37:05.265Z,14.40
2018-10-04T11:42:34.628Z,15.00
2018-10-04T11:48:04.025Z,13.40
2018-10-04T11:53:33.367Z,11.12
2018-10-04T11:59:02.723Z,15.30
2018-10-04T12:04:32.088Z,13.83
2018-10-04T12:10:01.529Z,10.78
2018-10-04T12:15:30.896Z,10.55
2018-10-04T12:21:03.613Z,15.17
2018-10-04T12:26:32.920Z,11.40
2018-10-04T12:32:02.241Z,16.57
2018-10-04T12:37:31.729Z,11.83
2018-10-04T12:43:01.235Z,12.80
2018-10-04T12:48:30.604Z,9.70
2018-10-04T12:54:00.058Z,14.07
2018-10-04T12:59:29.502Z,8.87
2018-10-04T13:04:58.824Z,14.10
2018-10-04T13:10:28.137Z,12.53
2018-10-04T13:15:57.465Z,13.67
2018-10-04T13:21:27.006Z,15.23
2018-10-04T13:26:56.316Z,12.53
2018-10-04T13:32:26.180Z,12.67
2018-10-04T13:37:55.483Z,12.90
2018-10-04T13:43:24.811Z,10.43
2018-10-04T13:48:54.136Z,12.20
2018-10-04T13:54:23.437Z,10.00
2018-10-04T13:59:52.779Z,14.28
2018-10-04T14:05:22.086Z,9.17
2018-10-04T14:10:51.545Z,12.43
2018-10-04T14:16:21.944Z,12.58
2018-10-04T14:21:51.260Z,10.70
2018-10-04T14:27:20.563Z,16.97
2018-10-04T14:32:49.978Z,12.13
2018-10-04T14:38:19.256Z,16.90
2018-10-04T14:43:48.690Z,11.40
2018-10-04T14:49:18.098Z,11.03
2018-10-04T14:54:47.504Z,12.80
2018-10-04T15:00:16.825Z,11.48
2018-10-04T15:05:46.259Z,14.10
2018-10-04T15:11:16.195Z,13.87
2018-10-04T15:16:45.767Z,11.77
2018-10-04T15:22:15.457Z,19.23
2018-10-04T15:27:45.249Z,12.70
2018-10-04T15:33:14.572Z,9.70
2018-10-04T15:38:43.932Z,13.70
2018-10-04T15:44:13.269Z,12.20
2018-10-04T15:49:42.968Z,12.00
2018-10-04T15:55:12.369Z,10.45
2018-10-04T16:00:42.269Z,12.80
2018-10-04T16:06:12.453Z,11.63
2018-10-04T16:11:43.781Z,14.40
2018-10-04T16:17:15.521Z,10.43
2018-10-04T16:22:46.124Z,13.97
2018-10-04T16:28:19.617Z,9.53
2018-10-04T16:33:54.922Z,12.10
2018-10-04T16:39:24.455Z,9.20
2018-10-04T16:44:53.840Z,12.20
2018-10-04T16:50:23.673Z,9.93
2018-10-04T16:55:53.149Z,13.37
2018-10-04T17:01:24.051Z,11.80
2018-10-04T17:06:53.673Z,9.67
2018-10-04T17:12:23.558Z,11.67
2018-10-04T17:17:52.888Z,10.13
2018-10-04T17:23:22.889Z,16.57
2018-10-04T17:29:08.198Z,17.23
2018-10-04T17:34:37.843Z,13.23
2018-10-04T17:40:09.792Z,16.83
2018-10-04T17:45:39.948Z,22.93
2018-10-04T17:51:09.401Z,20.33
2018-10-04T17:56:38.804Z,14.53
2018-10-04T18:02:13.878Z,16.00
2018-10-04T18:07:43.315Z,10.90
2018-10-04T18:13:12.797Z,14.57
2018-10-04T18:18:44.237Z,18.47
2018-10-04T18:24:16.581Z,16.30
2018-10-04T18:29:46.146Z,18.47
2018-10-04T18:35:20.319Z,16.17
2018-10-04T18:40:50.774Z,24.87
2018-10-04T18:46:20.445Z,14.00
2018-10-04T18:51:50.545Z,20.50
2018-10-04T18:57:20.220Z,17.13
2018-10-04T19:02:49.621Z,15.50
2018-10-04T19:08:18.980Z,17.83
2018-10-04T19:13:49.493Z,14.50
2018-10-04T19:19:19.049Z,21.83
2018-10-04T19:24:48.713Z,21.03
2018-10-04T19:30:18.016Z,18.60
2018-10-04T19:35:49.567Z,15.63
2018-10-04T19:41:20.504Z,22.00
2018-10-04T19:46:53.357Z,16.73
2018-10-04T19:52:23.984Z,19.17
2018-10-04T19:57:54.375Z,20.47
2018-10-04T20:03:24.969Z,14.90
2018-10-04T20:08:54.184Z,22.43
2018-10-04T20:14:23.626Z,24.87
2018-10-04T20:19:52.921Z,18.30
2018-10-04T20:25:22.266Z,15.58
2018-10-04T20:30:53.613Z,18.52
2018-10-04T20:36:30.917Z,18.73
2018-10-04T20:42:00.718Z,33.93
2018-10-04T20:47:31.179Z,19.50
2018-10-04T20:53:01.631Z,27.13
2018-10-04T20:58:32.324Z,20.83
2018-10-04T21:04:03.916Z,20.40
2018-10-04T21:09:34.336Z,24.33
2018-10-04T21:15:03.778Z,15.83
2018-10-04T21:20:34.190Z,18.57
2018-10-04T21:26:04.533Z,15.18
2018-10-04T21:31:33.831Z,17.00
2018-10-04T21:37:03.145Z,20.53
2018-10-04T21:42:32.366Z,21.10
2018-10-04T21:48:02.668Z,22.87
2018-10-04T21:53:31.989Z,21.27
2018-10-04T21:59:01.315Z,14.77
2018-10-04T22:04:32.740Z,20.40
2018-10-04T22:10:02.160Z,19.70
2018-10-04T22:15:32.457Z,16.73
2018-10-04T22:21:02.840Z,18.67
2018-10-04T22:26:32.237Z,20.93
2018-10-04T22:32:02.559Z,22.07
2018-10-04T22:37:31.833Z,19.40
2018-10-04T22:43:01.225Z,23.33
2018-10-04T22:48:30.570Z,18.73
2018-10-04T22:53:59.850Z,15.30
2018-10-04T22:59:30.248Z,14.70
2018-10-04T23:04:59.573Z,16.27
2018-10-04T23:10:28.885Z,15.93
2018-10-04T23:16:14.789Z,16.25
2018-10-04T23:21:44.113Z,14.23
2018-10-04T23:27:13.548Z,20.40
2018-10-04T23:32:43.018Z,17.10
2018-10-04T23:38:12.292Z,17.53
2018-10-04T23:43:53.276Z,20.13
2018-10-04T23:49:22.556Z,27.43
2018-10-04T23:54:51.872Z,19.43
